Gilmantown, New York
Current Conditions -  °F | °C
As of 8:55 AM on Monday 20 Oct 2014 (Local Time) from KNY0 Reporting Station
Broken Clouds Broken Clouds  
Wind Chill: 32°   Ceiling: 11000
Heat Index: 32°   Visibility: 10mi
Dew Point: 31°   Wind: 0mph
Humidity: 95%   Direction: NA
Pressure: 30.03"   Gusts: NA
Location:  43.4734°N, 74.2732°W
Report Text: KNY0 201255Z AUTO 00000KT 10SM BKN110 00/M01 A3003 RMK AO2 T00011006
Loading
Personal Weather Stations






























Interactive Weather Map
Tropical Storm Tracking
New forecast layout! Learn more

10-Day Weather Forecast

Advertisements
Track Severe Weather on mobile